Time,TemperatureF,DewpointF,PressureIn,WindDirection,WindDirectionDegrees,WindSpeedMPH,WindSpeedGustMPH,Humidity,HourlyPrecipIn,Conditions,Clouds,dailyrainin,SolarRadiationWatts/m^2,SoftwareType,DateUTC
2013-05-17 00:03:00,71.6,64.0,30.08,SSE,162,0.0,2.0,77,0.00,,,0.00,0,Wunderground v.1.15,2013-05-17 04:03:00,
2013-05-17 00:08:00,71.6,64.0,30.08,SSE,162,0.0,2.0,77,0.00,,,0.00,0,Wunderground v.1.15,2013-05-17 04:08:00,
2013-05-17 00:13:00,71.5,64.3,30.08,SSE,162,0.0,0.0,78,0.00,,,0.00,0,Wunderground v.1.15,2013-05-17 04:13:00,
2013-05-17 00:18:00,71.5,64.3,30.08,SSE,162,0.0,0.0,78,0.00,,,0.00,0,Wunderground v.1.15,2013-05-17 04:18:00,
2013-05-17 00:28:00,71.4,64.2,30.08,SSE,162,0.0,0.0,78,0.00,,,0.00,0,Wunderground v.1.15,2013-05-17 04:28:00,
2013-05-17 00:33:00,71.4,64.5,30.08,SSE,162,0.0,0.0,79,0.00,,,0.00,0,Wunderground v.1.15,2013-05-17 04:33:00,
2013-05-17 00:43:00,71.3,64.4,30.08,SSE,162,0.0,0.0,79,0.00,,,0.00,0,Wunderground v.1.15,2013-05-17 04:43:00,
2013-05-17 00:48:00,71.2,64.7,30.07,SSE,162,0.0,0.0,80,0.00,,,0.00,0,Wunderground v.1.15,2013-05-17 04:48:00,
2013-05-17 00:58:00,71.1,64.6,30.07,SSE,162,0.0,0.0,80,0.00,,,0.00,0,Wunderground v.1.15,2013-05-17 04:58:00,
2013-05-17 01:03:00,71.0,64.5,30.08,SSE,162,0.0,0.0,80,0.00,,,0.00,0,Wunderground v.1.15,2013-05-17 05:03:00,
2013-05-17 01:08:00,71.0,64.5,30.08,SSE,162,0.0,0.0,80,0.00,,,0.00,0,Wunderground v.1.15,2013-05-17 05:08:00,
2013-05-17 01:18:00,70.8,64.7,30.07,SSE,162,0.0,0.0,81,0.00,,,0.00,0,Wunderground v.1.15,2013-05-17 05:18:00,
2013-05-17 01:28:00,70.6,64.5,30.07,SSE,162,0.0,0.0,81,0.00,,,0.00,0,Wunderground v.1.15,2013-05-17 05:28:00,
2013-05-17 01:38:00,70.4,64.6,30.06,SSE,162,0.0,0.0,82,0.00,,,0.00,0,Wunderground v.1.15,2013-05-17 05:38:00,
2013-05-17 01:48:00,70.2,64.4,30.06,SSE,162,0.0,0.0,82,0.00,,,0.00,0,Wunderground v.1.15,2013-05-17 05:48:00,
2013-05-17 01:53:00,70.1,64.3,30.06,SSE,162,0.0,0.0,82,0.00,,,0.00,0,Wunderground v.1.15,2013-05-17 05:53:00,
2013-05-17 02:03:00,69.8,64.4,30.06,SSE,162,0.0,0.0,83,0.00,,,0.00,0,Wunderground v.1.15,2013-05-17 06:03:00,
2013-05-17 02:13:00,69.6,64.5,30.06,SSE,162,0.0,0.0,84,0.00,,,0.00,0,Wunderground v.1.15,2013-05-17 06:13:00,
2013-05-17 02:18:00,69.4,64.7,30.06,SSE,162,0.0,0.0,85,0.00,,,0.00,0,Wunderground v.1.15,2013-05-17 06:18:00,
2013-05-17 02:28:00,69.2,64.5,30.06,SSE,162,0.0,0.0,85,0.00,,,0.00,0,Wunderground v.1.15,2013-05-17 06:28:00,
2013-05-17 02:33:00,69.0,64.3,30.06,SSE,162,0.0,0.0,85,0.00,,,0.00,0,Wunderground v.1.15,2013-05-17 06:33:00,
2013-05-17 02:43:00,68.7,64.3,30.06,SSE,162,0.0,0.0,86,0.00,,,0.00,0,Wunderground v.1.15,2013-05-17 06:43:00,
2013-05-17 02:53:00,68.5,64.1,30.05,SSE,162,0.0,0.0,86,0.00,,,0.00,0,Wunderground v.1.15,2013-05-17 06:53:00,
2013-05-17 02:58:00,68.4,64.4,30.05,SSE,162,0.0,0.0,87,0.00,,,0.00,0,Wunderground v.1.15,2013-05-17 06:58:00,
2013-05-17 03:03:00,68.4,64.4,30.05,SSE,162,0.0,0.0,87,0.00,,,0.00,0,Wunderground v.1.15,2013-05-17 07:03:00,
2013-05-17 03:13:00,68.2,64.2,30.05,SSE,162,0.0,0.0,87,0.00,,,0.00,0,Wunderground v.1.15,2013-05-17 07:13:00,
2013-05-17 03:18:00,68.1,64.1,30.05,SSE,162,0.0,0.0,87,0.00,,,0.00,0,Wunderground v.1.15,2013-05-17 07:18:00,
2013-05-17 03:28:00,67.9,63.9,30.05,SSE,162,0.0,0.0,87,0.00,,,0.00,0,Wunderground v.1.15,2013-05-17 07:28:00,
2013-05-17 03:33:00,67.9,63.9,30.06,SSE,162,0.0,0.0,87,0.00,,,0.00,0,Wunderground v.1.15,2013-05-17 07:33:00,
2013-05-17 03:43:00,67.6,63.6,30.06,SSE,162,0.0,0.0,87,0.00,,,0.00,0,Wunderground v.1.15,2013-05-17 07:43:00,
2013-05-17 03:48:00,67.5,63.8,30.06,SSE,162,0.0,0.0,88,0.00,,,0.00,0,Wunderground v.1.15,2013-05-17 07:48:00,
2013-05-17 03:58:00,67.3,63.6,30.06,SSE,162,0.0,0.0,88,0.00,,,0.00,0,Wunderground v.1.15,2013-05-17 07:58:00,
2013-05-17 04:08:00,67.1,63.4,30.06,SSE,162,0.0,0.0,88,0.00,,,0.00,0,Wunderground v.1.15,2013-05-17 08:08:00,
2013-05-17 04:18:00,66.8,63.1,30.06,SSE,162,0.0,0.0,88,0.00,,,0.00,0,Wunderground v.1.15,2013-05-17 08:18:00,
2013-05-17 04:28:00,66.5,62.8,30.06,SSE,162,0.0,0.0,88,0.00,,,0.00,0,Wunderground v.1.15,2013-05-17 08:28:00,
2013-05-17 04:33:00,66.4,62.7,30.06,SSE,162,0.0,0.0,88,0.00,,,0.00,0,Wunderground v.1.15,2013-05-17 08:33:00,
2013-05-17 04:43:00,66.2,62.9,30.06,SSE,162,0.0,0.0,89,0.00,,,0.00,0,Wunderground v.1.15,2013-05-17 08:43:00,
2013-05-17 04:48:00,66.1,62.8,30.07,SSE,162,0.0,0.0,89,0.00,,,0.00,0,Wunderground v.1.15,2013-05-17 08:48:00,
2013-05-17 04:53:00,65.9,62.6,30.06,SSE,162,0.0,0.0,89,0.00,,,0.00,0,Wunderground v.1.15,2013-05-17 08:53:00,
2013-05-17 05:03:00,65.7,62.4,30.07,SSE,162,0.0,0.0,89,0.00,,,0.00,0,Wunderground v.1.15,2013-05-17 09:03:00,
2013-05-17 05:08:00,65.6,62.3,30.07,SSE,162,0.0,0.0,89,0.00,,,0.00,0,Wunderground v.1.15,2013-05-17 09:08:00,
2013-05-17 05:18:00,65.3,62.0,30.07,SSE,162,0.0,0.0,89,0.00,,,0.00,0,Wunderground v.1.15,2013-05-17 09:18:00,
2013-05-17 05:28:00,65.0,61.7,30.07,SSE,162,0.0,0.0,89,0.00,,,0.00,0,Wunderground v.1.15,2013-05-17 09:28:00,
2013-05-17 05:33:00,64.9,61.6,30.07,SSE,162,0.0,0.0,89,0.00,,,0.00,0,Wunderground v.1.15,2013-05-17 09:33:00,
2013-05-17 05:43:00,64.7,61.4,30.07,SSE,162,0.0,0.0,89,0.00,,,0.00,0,Wunderground v.1.15,2013-05-17 09:43:00,
2013-05-17 05:48:00,64.6,61.3,30.07,SSE,162,0.0,0.0,89,0.00,,,0.00,0,Wunderground v.1.15,2013-05-17 09:48:00,
2013-05-17 05:58:00,64.5,61.5,30.07,SSE,162,0.0,0.0,90,0.00,,,0.00,0,Wunderground v.1.15,2013-05-17 09:58:00,
2013-05-17 06:03:00,64.3,61.3,30.08,SSE,162,0.0,0.0,90,0.00,,,0.00,0,Wunderground v.1.15,2013-05-17 10:03:00,
2013-05-17 06:13:00,64.3,61.3,30.08,SSE,162,0.0,0.0,90,0.00,,,0.00,0,Wunderground v.1.15,2013-05-17 10:13:00,
2013-05-17 06:18:00,64.3,61.6,30.08,SSE,162,0.0,0.0,91,0.00,,,0.00,0,Wunderground v.1.15,2013-05-17 10:18:00,
2013-05-17 06:23:00,64.3,61.6,30.08,SSE,162,0.0,0.0,91,0.00,,,0.00,0,Wunderground v.1.15,2013-05-17 10:23:00,
2013-05-17 06:33:00,64.2,61.5,30.09,SSE,162,0.0,0.0,91,0.00,,,0.00,0,Wunderground v.1.15,2013-05-17 10:33:00,
2013-05-17 06:43:00,64.1,61.4,30.09,SSE,162,0.0,0.0,91,0.00,,,0.00,7,Wunderground v.1.15,2013-05-17 10:43:00,
2013-05-17 06:48:00,64.1,61.7,30.09,SSE,162,0.0,0.0,92,0.00,,,0.00,11,Wunderground v.1.15,2013-05-17 10:48:00,
2013-05-17 06:58:00,64.1,61.7,30.09,SSE,162,0.0,0.0,92,0.00,,,0.00,16,Wunderground v.1.15,2013-05-17 10:58:00,
2013-05-17 07:03:00,64.1,61.7,30.09,SSE,162,0.0,0.0,92,0.00,,,0.00,19,Wunderground v.1.15,2013-05-17 11:03:00,
2013-05-17 07:13:00,64.1,61.7,30.10,SSE,162,0.0,0.0,92,0.00,,,0.00,39,Wunderground v.1.15,2013-05-17 11:13:00,
2013-05-17 07:18:00,64.1,62.0,30.10,SSE,162,0.0,0.0,93,0.00,,,0.00,33,Wunderground v.1.15,2013-05-17 11:18:00,
2013-05-17 07:28:00,64.5,62.4,30.10,SSE,162,0.0,0.0,93,0.00,,,0.00,111,Wunderground v.1.15,2013-05-17 11:28:00,
2013-05-17 07:33:00,64.9,63.1,30.10,SSE,162,0.0,0.0,94,0.00,,,0.00,132,Wunderground v.1.15,2013-05-17 11:33:00,
2013-05-17 07:43:00,65.8,64.0,30.10,SSE,162,0.0,0.0,94,0.00,,,0.00,165,Wunderground v.1.15,2013-05-17 11:43:00,
2013-05-17 07:48:00,66.4,64.6,30.10,SSE,162,0.0,0.0,94,0.00,,,0.00,81,Wunderground v.1.15,2013-05-17 11:48:00,
2013-05-17 07:53:00,66.9,65.1,30.10,SSE,162,0.0,0.0,94,0.00,,,0.00,100,Wunderground v.1.15,2013-05-17 11:53:00,
2013-05-17 08:03:00,67.7,65.9,30.11,SSE,162,0.0,0.0,94,0.00,,,0.00,232,Wunderground v.1.15,2013-05-17 12:03:00,
2013-05-17 08:08:00,68.1,66.3,30.11,SSE,162,0.0,0.0,94,0.00,,,0.00,144,Wunderground v.1.15,2013-05-17 12:08:00,
2013-05-17 08:18:00,68.9,66.8,30.11,SSE,162,0.0,0.0,93,0.00,,,0.00,299,Wunderground v.1.15,2013-05-17 12:18:00,
2013-05-17 08:28:00,69.9,67.5,30.12,SSE,162,0.0,0.0,92,0.00,,,0.00,330,Wunderground v.1.15,2013-05-17 12:28:00,
2013-05-17 08:33:00,70.4,67.3,30.11,SSE,162,0.0,0.0,90,0.00,,,0.00,350,Wunderground v.1.15,2013-05-17 12:33:00,
2013-05-17 08:43:00,71.6,67.2,30.12,SSE,162,1.0,2.0,86,0.00,,,0.00,390,Wunderground v.1.15,2013-05-17 12:43:00,
2013-05-17 08:48:00,72.3,67.2,30.12,SSE,162,1.0,2.0,84,0.00,,,0.00,410,Wunderground v.1.15,2013-05-17 12:48:00,
2013-05-17 08:58:00,73.8,66.9,30.12,SSE,162,0.0,1.0,79,0.00,,,0.00,441,Wunderground v.1.15,2013-05-17 12:58:00,
2013-05-17 09:03:00,74.5,66.8,30.12,SSE,162,0.0,0.0,77,0.00,,,0.00,464,Wunderground v.1.15,2013-05-17 13:03:00,
2013-05-17 09:13:00,75.8,66.9,30.12,SSE,162,0.0,0.0,74,0.00,,,0.00,496,Wunderground v.1.15,2013-05-17 13:13:00,
2013-05-17 09:18:00,76.4,66.7,30.12,SSE,162,0.0,0.0,72,0.00,,,0.00,513,Wunderground v.1.15,2013-05-17 13:18:00,
2013-05-17 09:28:00,77.4,66.4,30.12,SSE,162,0.0,0.0,69,0.00,,,0.00,545,Wunderground v.1.15,2013-05-17 13:28:00,
2013-05-17 09:33:00,77.8,66.0,30.12,SSE,162,1.0,1.0,67,0.00,,,0.00,563,Wunderground v.1.15,2013-05-17 13:33:00,
2013-05-17 09:43:00,78.5,65.8,30.12,SSE,162,1.0,1.0,65,0.00,,,0.00,592,Wunderground v.1.15,2013-05-17 13:43:00,
2013-05-17 09:48:00,78.8,66.0,30.12,SSE,162,1.0,1.0,65,0.00,,,0.00,608,Wunderground v.1.15,2013-05-17 13:48:00,
2013-05-17 09:53:00,79.1,66.3,30.12,SSE,162,0.0,0.0,65,0.00,,,0.00,624,Wunderground v.1.15,2013-05-17 13:53:00,
2013-05-17 10:03:00,79.9,66.6,30.12,SSE,162,0.0,0.0,64,0.00,,,0.00,657,Wunderground v.1.15,2013-05-17 14:03:00,
2013-05-17 10:13:00,80.6,65.9,30.12,SSE,162,0.0,0.0,61,0.00,,,0.00,684,Wunderground v.1.15,2013-05-17 14:13:00,
2013-05-17 10:18:00,81.1,66.4,30.12,SSE,162,0.0,0.0,61,0.00,,,0.00,700,Wunderground v.1.15,2013-05-17 14:18:00,
2013-05-17 10:28:00,82.5,66.7,30.12,SSE,162,1.0,3.0,59,0.00,,,0.00,724,Wunderground v.1.15,2013-05-17 14:28:00,
2013-05-17 10:33:00,83.1,65.8,30.12,SSE,162,0.0,0.0,56,0.00,,,0.00,742,Wunderground v.1.15,2013-05-17 14:33:00,
2013-05-17 10:43:00,84.5,66.6,30.12,SSE,162,0.0,0.0,55,0.00,,,0.00,763,Wunderground v.1.15,2013-05-17 14:43:00,
2013-05-17 10:48:00,85.0,66.0,30.12,SSE,162,0.0,0.0,53,0.00,,,0.00,780,Wunderground v.1.15,2013-05-17 14:48:00,
2013-05-17 10:58:00,85.1,66.0,30.12,SSE,162,0.0,0.0,53,0.00,,,0.00,800,Wunderground v.1.15,2013-05-17 14:58:00,
2013-05-17 11:03:00,85.3,65.7,30.12,SSE,162,0.0,0.0,52,0.00,,,0.00,814,Wunderground v.1.15,2013-05-17 15:03:00,
2013-05-17 11:13:00,85.5,67.5,30.12,SSE,162,0.0,0.0,55,0.00,,,0.00,833,Wunderground v.1.15,2013-05-17 15:13:00,
2013-05-17 11:18:00,85.9,67.3,30.12,SSE,162,0.0,0.0,54,0.00,,,0.00,846,Wunderground v.1.15,2013-05-17 15:18:00,
2013-05-17 11:28:00,86.4,67.8,30.12,SSE,162,0.0,0.0,54,0.00,,,0.00,863,Wunderground v.1.15,2013-05-17 15:28:00,
2013-05-17 11:33:00,86.2,68.1,30.12,SSE,162,0.0,0.0,55,0.00,,,0.00,872,Wunderground v.1.15,2013-05-17 15:33:00,
2013-05-17 11:43:00,85.6,67.6,30.12,SSE,162,1.0,1.0,55,0.00,,,0.00,888,Wunderground v.1.15,2013-05-17 15:43:00,
2013-05-17 11:48:00,85.6,67.6,30.12,SSE,162,1.0,1.0,55,0.00,,,0.00,893,Wunderground v.1.15,2013-05-17 15:48:00,
2013-05-17 11:58:00,85.9,67.9,30.12,SSE,162,1.0,2.0,55,0.00,,,0.00,907,Wunderground v.1.15,2013-05-17 15:58:00,
2013-05-17 12:03:00,86.4,67.2,30.12,SSE,162,1.0,1.0,53,0.00,,,0.00,914,Wunderground v.1.15,2013-05-17 16:03:00,
2013-05-17 12:13:00,86.9,67.7,30.12,SSE,162,0.0,0.0,53,0.00,,,0.00,928,Wunderground v.1.15,2013-05-17 16:13:00,
2013-05-17 12:18:00,87.2,66.9,30.12,SSE,162,0.0,0.0,51,0.00,,,0.00,942,Wunderground v.1.15,2013-05-17 16:18:00,
2013-05-17 12:28:00,87.4,67.1,30.12,SSE,162,1.0,1.0,51,0.00,,,0.00,944,Wunderground v.1.15,2013-05-17 16:28:00,
2013-05-17 12:33:00,87.5,66.0,30.12,SSE,162,1.0,1.0,49,0.00,,,0.00,951,Wunderground v.1.15,2013-05-17 16:33:00,
2013-05-17 12:38:00,88.2,64.8,30.12,SSE,162,0.0,1.0,46,0.00,,,0.00,958,Wunderground v.1.15,2013-05-17 16:38:00,
2013-05-17 12:48:00,88.7,63.3,30.12,SSE,162,1.0,1.0,43,0.00,,,0.00,991,Wunderground v.1.15,2013-05-17 16:48:00,
2013-05-17 12:58:00,89.7,62.2,30.11,SSE,162,0.0,2.0,40,0.00,,,0.00,997,Wunderground v.1.15,2013-05-17 16:58:00,
2013-05-17 13:03:00,89.4,61.9,30.12,SSE,162,1.0,1.0,40,0.00,,,0.00,1005,Wunderground v.1.15,2013-05-17 17:03:00,
2013-05-17 13:13:00,90.7,58.5,30.11,SSE,162,0.0,0.0,34,0.00,,,0.00,1009,Wunderground v.1.15,2013-05-17 17:13:00,
2013-05-17 13:18:00,90.4,57.4,30.11,SSE,162,0.0,1.0,33,0.00,,,0.00,1134,Wunderground v.1.15,2013-05-17 17:18:00,
2013-05-17 13:28:00,90.7,60.8,30.11,SSE,162,1.0,3.0,37,0.00,,,0.00,1104,Wunderground v.1.15,2013-05-17 17:28:00,
2013-05-17 13:33:00,90.8,59.4,30.11,SSE,162,1.0,1.0,35,0.00,,,0.00,844,Wunderground v.1.15,2013-05-17 17:33:00,
2013-05-17 13:43:00,91.4,57.4,30.10,SSE,162,0.0,0.0,32,0.00,,,0.00,990,Wunderground v.1.15,2013-05-17 17:43:00,
2013-05-17 13:48:00,91.8,54.1,30.10,SSE,162,0.0,2.0,28,0.00,,,0.00,965,Wunderground v.1.15,2013-05-17 17:48:00,
2013-05-17 13:58:00,91.7,54.9,30.10,SSE,162,1.0,2.0,29,0.00,,,0.00,944,Wunderground v.1.15,2013-05-17 17:58:00,
2013-05-17 14:03:00,91.1,58.8,30.10,SSE,162,1.0,2.0,34,0.00,,,0.00,940,Wunderground v.1.15,2013-05-17 18:03:00,
2013-05-17 14:13:00,91.2,62.0,30.10,SSE,162,1.0,1.0,38,0.00,,,0.00,933,Wunderground v.1.15,2013-05-17 18:13:00,
2013-05-17 14:18:00,91.4,61.5,30.10,SSE,162,1.0,2.0,37,0.00,,,0.00,925,Wunderground v.1.15,2013-05-17 18:18:00,
2013-05-17 14:28:00,91.7,64.0,30.09,SSE,162,0.0,1.0,40,0.00,,,0.00,912,Wunderground v.1.15,2013-05-17 18:28:00,
2013-05-17 14:33:00,92.1,61.3,30.09,SSE,162,1.0,1.0,36,0.00,,,0.00,902,Wunderground v.1.15,2013-05-17 18:33:00,
2013-05-17 14:38:00,92.1,62.1,30.09,SSE,162,1.0,1.0,37,0.00,,,0.00,898,Wunderground v.1.15,2013-05-17 18:38:00,
2013-05-17 14:48:00,92.9,62.8,30.09,SSE,162,1.0,3.0,37,0.00,,,0.00,886,Wunderground v.1.15,2013-05-17 18:48:00,
2013-05-17 14:58:00,92.2,62.9,30.09,SSE,162,1.0,2.0,38,0.00,,,0.00,863,Wunderground v.1.15,2013-05-17 18:58:00,
2013-05-17 15:03:00,92.0,62.8,30.08,SSE,162,1.0,1.0,38,0.00,,,0.00,863,Wunderground v.1.15,2013-05-17 19:03:00,
2013-05-17 15:13:00,91.2,63.5,30.08,SSE,162,2.0,2.0,40,0.00,,,0.00,844,Wunderground v.1.15,2013-05-17 19:13:00,
2013-05-17 15:18:00,91.4,63.7,30.08,SSE,162,2.0,2.0,40,0.00,,,0.00,826,Wunderground v.1.15,2013-05-17 19:18:00,
2013-05-17 15:23:00,91.2,64.2,30.08,SSE,162,1.0,1.0,41,0.00,,,0.00,821,Wunderground v.1.15,2013-05-17 19:23:00,
2013-05-17 15:33:00,90.8,64.5,30.08,SSE,162,0.0,3.0,42,0.00,,,0.00,796,Wunderground v.1.15,2013-05-17 19:33:00,
2013-05-17 15:43:00,91.6,66.6,30.08,SSE,162,0.0,0.0,44,0.00,,,0.00,779,Wunderground v.1.15,2013-05-17 19:43:00,
2013-05-17 15:48:00,91.6,67.3,30.08,SSE,162,1.0,1.0,45,0.00,,,0.00,766,Wunderground v.1.15,2013-05-17 19:48:00,
2013-05-17 15:58:00,92.0,67.6,30.07,SSE,162,0.0,1.0,45,0.00,,,0.00,742,Wunderground v.1.15,2013-05-17 19:58:00,
2013-05-17 16:03:00,91.5,67.8,30.07,SSE,162,1.0,1.0,46,0.00,,,0.00,731,Wunderground v.1.15,2013-05-17 20:03:00,
2013-05-17 16:13:00,90.6,68.2,30.07,SSE,162,1.0,1.0,48,0.00,,,0.00,710,Wunderground v.1.15,2013-05-17 20:13:00,
2013-05-17 16:18:00,90.7,68.3,30.07,SSE,162,1.0,1.0,48,0.00,,,0.00,691,Wunderground v.1.15,2013-05-17 20:18:00,
2013-05-17 16:28:00,91.0,68.0,30.07,SSE,162,0.0,0.0,47,0.00,,,0.00,664,Wunderground v.1.15,2013-05-17 20:28:00,
2013-05-17 16:33:00,90.1,68.4,30.07,SSE,162,0.0,0.0,49,0.00,,,0.00,640,Wunderground v.1.15,2013-05-17 20:33:00,
2013-05-17 16:43:00,89.7,69.2,30.07,SSE,162,0.0,0.0,51,0.00,,,0.00,610,Wunderground v.1.15,2013-05-17 20:43:00,
2013-05-17 16:48:00,89.7,68.0,30.07,SSE,162,0.0,0.0,49,0.00,,,0.00,592,Wunderground v.1.15,2013-05-17 20:48:00,
2013-05-17 16:58:00,89.4,67.7,30.07,SSE,162,0.0,0.0,49,0.00,,,0.00,566,Wunderground v.1.15,2013-05-17 20:58:00,
2013-05-17 17:03:00,89.3,68.2,30.07,SSE,162,0.0,1.0,50,0.00,,,0.00,548,Wunderground v.1.15,2013-05-17 21:03:00,
2013-05-17 17:13:00,89.0,66.8,30.07,SSE,162,0.0,0.0,48,0.00,,,0.00,519,Wunderground v.1.15,2013-05-17 21:13:00,
2013-05-17 17:18:00,88.6,67.0,30.07,SSE,162,0.0,0.0,49,0.00,,,0.00,503,Wunderground v.1.15,2013-05-17 21:18:00,
2013-05-17 17:23:00,88.4,66.8,30.07,SSE,162,0.0,0.0,49,0.00,,,0.00,487,Wunderground v.1.15,2013-05-17 21:23:00,
2013-05-17 17:33:00,87.7,65.6,30.07,SSE,162,0.0,0.0,48,0.00,,,0.00,455,Wunderground v.1.15,2013-05-17 21:33:00,
2013-05-17 17:38:00,87.4,65.9,30.06,SSE,162,0.0,0.0,49,0.00,,,0.00,438,Wunderground v.1.15,2013-05-17 21:38:00,
2013-05-17 17:48:00,87.0,66.7,30.07,SSE,162,0.0,2.0,51,0.00,,,0.00,401,Wunderground v.1.15,2013-05-17 21:48:00,
2013-05-17 17:58:00,86.2,67.1,30.07,SSE,162,1.0,1.0,53,0.00,,,0.00,369,Wunderground v.1.15,2013-05-17 21:58:00,
2013-05-17 18:03:00,85.8,67.2,30.07,SSE,162,0.0,0.0,54,0.00,,,0.00,350,Wunderground v.1.15,2013-05-17 22:03:00,
2013-05-17 18:13:00,85.2,67.7,30.07,SSE,162,0.0,0.0,56,0.00,,,0.00,318,Wunderground v.1.15,2013-05-17 22:13:00,
2013-05-17 18:18:00,84.7,67.3,30.07,SSE,162,0.0,0.0,56,0.00,,,0.00,299,Wunderground v.1.15,2013-05-17 22:18:00,
2013-05-17 18:28:00,84.2,67.3,30.07,SSE,162,0.0,4.0,57,0.00,,,0.00,269,Wunderground v.1.15,2013-05-17 22:28:00,
2013-05-17 18:33:00,83.8,66.4,30.07,SSE,162,0.0,0.0,56,0.00,,,0.00,251,Wunderground v.1.15,2013-05-17 22:33:00,
2013-05-17 18:43:00,82.9,66.1,30.07,SSE,162,0.0,0.0,57,0.00,,,0.00,216,Wunderground v.1.15,2013-05-17 22:43:00,
2013-05-17 18:48:00,82.5,66.7,30.07,SSE,162,0.0,0.0,59,0.00,,,0.00,195,Wunderground v.1.15,2013-05-17 22:48:00,
2013-05-17 18:58:00,81.9,66.6,30.07,SSE,162,0.0,0.0,60,0.00,,,0.00,156,Wunderground v.1.15,2013-05-17 22:58:00,
2013-05-17 19:03:00,81.6,65.9,30.07,SSE,162,0.0,0.0,59,0.00,,,0.00,141,Wunderground v.1.15,2013-05-17 23:03:00,
2013-05-17 19:08:00,81.2,66.0,30.07,SSE,162,0.0,0.0,60,0.00,,,0.00,46,Wunderground v.1.15,2013-05-17 23:08:00,
2013-05-17 19:18:00,80.4,65.7,30.07,SSE,162,0.0,0.0,61,0.00,,,0.00,40,Wunderground v.1.15,2013-05-17 23:18:00,
2013-05-17 19:28:00,79.8,65.6,30.07,SSE,162,0.0,0.0,62,0.00,,,0.00,35,Wunderground v.1.15,2013-05-17 23:28:00,
2013-05-17 19:33:00,79.4,65.7,30.07,SSE,162,0.0,0.0,63,0.00,,,0.00,32,Wunderground v.1.15,2013-05-17 23:33:00,
2013-05-17 19:43:00,79.0,66.2,30.08,SSE,162,0.0,0.0,65,0.00,,,0.00,25,Wunderground v.1.15,2013-05-17 23:43:00,
2013-05-17 19:48:00,78.7,65.9,30.08,SSE,162,0.0,0.0,65,0.00,,,0.00,19,Wunderground v.1.15,2013-05-17 23:48:00,
2013-05-17 19:58:00,78.1,66.2,30.08,SSE,162,0.0,0.0,67,0.00,,,0.00,14,Wunderground v.1.15,2013-05-17 23:58:00,
2013-05-17 20:03:00,77.8,66.8,30.08,SSE,162,0.0,0.0,69,0.00,,,0.00,9,Wunderground v.1.15,2013-05-18 00:03:00,
2013-05-17 20:13:00,77.3,67.2,30.08,SSE,162,0.0,0.0,71,0.00,,,0.00,0,Wunderground v.1.15,2013-05-18 00:13:00,
2013-05-17 20:18:00,77.1,67.0,30.08,SSE,162,0.0,0.0,71,0.00,,,0.00,0,Wunderground v.1.15,2013-05-18 00:18:00,
2013-05-17 20:28:00,76.7,67.4,30.08,SSE,162,0.0,1.0,73,0.00,,,0.00,0,Wunderground v.1.15,2013-05-18 00:28:00,
2013-05-17 20:33:00,76.5,67.2,30.08,SSE,162,0.0,0.0,73,0.00,,,0.00,0,Wunderground v.1.15,2013-05-18 00:33:00,
2013-05-17 20:43:00,76.1,67.6,30.09,SSE,162,0.0,0.0,75,0.00,,,0.00,0,Wunderground v.1.15,2013-05-18 00:43:00,
2013-05-17 20:48:00,75.9,67.4,30.09,SSE,162,0.0,0.0,75,0.00,,,0.00,0,Wunderground v.1.15,2013-05-18 00:48:00,
2013-05-17 20:58:00,75.6,67.5,30.09,SSE,162,0.0,0.0,76,0.00,,,0.00,0,Wunderground v.1.15,2013-05-18 00:58:00,
2013-05-17 21:03:00,75.5,67.8,30.09,SSE,162,1.0,1.0,77,0.00,,,0.00,0,Wunderground v.1.15,2013-05-18 01:03:00,
2013-05-17 21:13:00,75.3,67.6,30.09,SSE,162,0.0,4.0,77,0.00,,,0.00,0,Wunderground v.1.15,2013-05-18 01:13:00,
2013-05-17 21:18:00,75.2,67.9,30.09,SSE,162,0.0,4.0,78,0.00,,,0.00,0,Wunderground v.1.15,2013-05-18 01:18:00,
2013-05-17 21:28:00,75.0,67.7,30.09,SSE,162,0.0,5.0,78,0.00,,,0.00,0,Wunderground v.1.15,2013-05-18 01:28:00,
2013-05-17 21:33:00,74.9,67.9,30.09,SSE,162,0.0,0.0,79,0.00,,,0.00,0,Wunderground v.1.15,2013-05-18 01:33:00,
2013-05-17 21:43:00,74.7,67.8,30.09,SSE,162,0.0,0.0,79,0.00,,,0.00,0,Wunderground v.1.15,2013-05-18 01:43:00,
2013-05-17 21:48:00,74.6,68.0,30.09,SSE,162,0.0,1.0,80,0.00,,,0.00,0,Wunderground v.1.15,2013-05-18 01:48:00,
2013-05-17 21:58:00,74.4,67.8,30.09,SSE,162,0.0,1.0,80,0.00,,,0.00,0,Wunderground v.1.15,2013-05-18 01:58:00,
2013-05-17 22:03:00,74.4,67.8,30.10,SSE,162,1.0,1.0,80,0.00,,,0.00,0,Wunderground v.1.15,2013-05-18 02:03:00,
2013-05-17 22:13:00,74.2,68.0,30.10,SSE,162,1.0,1.0,81,0.00,,,0.00,0,Wunderground v.1.15,2013-05-18 02:13:00,
2013-05-17 22:18:00,74.2,68.0,30.10,SSE,162,1.0,1.0,81,0.00,,,0.00,0,Wunderground v.1.15,2013-05-18 02:18:00,
2013-05-17 22:28:00,74.0,68.2,30.10,SSE,162,1.0,1.0,82,0.00,,,0.00,0,Wunderground v.1.15,2013-05-18 02:28:00,
2013-05-17 22:38:00,73.9,68.1,30.10,SSE,162,0.0,1.0,82,0.00,,,0.00,0,Wunderground v.1.15,2013-05-18 02:38:00,
2013-05-17 22:43:00,73.8,68.0,30.11,SSE,162,0.0,0.0,82,0.00,,,0.00,0,Wunderground v.1.15,2013-05-18 02:43:00,
2013-05-17 22:48:00,73.7,68.2,30.10,SSE,162,0.0,0.0,83,0.00,,,0.00,0,Wunderground v.1.15,2013-05-18 02:48:00,
2013-05-17 22:58:00,73.6,68.1,30.10,SSE,162,0.0,0.0,83,0.00,,,0.00,0,Wunderground v.1.15,2013-05-18 02:58:00,
2013-05-17 23:03:00,73.6,68.1,30.10,SSE,162,0.0,0.0,83,0.00,,,0.00,0,Wunderground v.1.15,2013-05-18 03:03:00,
2013-05-17 23:13:00,73.5,68.4,30.11,SSE,162,0.0,0.0,84,0.00,,,0.00,0,Wunderground v.1.15,2013-05-18 03:13:00,
2013-05-17 23:18:00,73.4,68.3,30.11,SSE,168,1.0,1.0,84,0.00,,,0.00,0,Wunderground v.1.15,2013-05-18 03:18:00,
2013-05-17 23:28:00,73.3,68.2,30.11,SSE,168,1.0,8.0,84,0.00,,,0.00,0,Wunderground v.1.15,2013-05-18 03:28:00,
2013-05-17 23:33:00,73.3,68.2,30.11,SSE,168,1.0,2.0,84,0.00,,,0.00,0,Wunderground v.1.15,2013-05-18 03:33:00,
2013-05-17 23:43:00,73.3,68.5,30.10,SSE,168,1.0,1.0,85,0.00,,,0.00,0,Wunderground v.1.15,2013-05-18 03:43:00,
2013-05-17 23:48:00,73.2,68.4,30.11,SSE,168,1.0,1.0,85,0.00,,,0.00,0,Wunderground v.1.15,2013-05-18 03:48:00,
2013-05-17 23:58:00,73.2,68.4,30.10,SSE,168,1.0,7.0,85,0.00,,,0.00,0,Wunderground v.1.15,2013-05-18 03:58:00,